Terminal Aerodrome Forecast
Issued by NWS

Home | Current Version | Previous Version | Text Only | Print | Product List | Glossary On
Versions: 1 2 3 4 5 6 7 8 9 10 11 12 13 14 15 16 17 18 19 20 21 22 23 24 25 26 27 28 29 30 31 32
000
FTUS45 KREV 161146
TAFTRK
TAF
KTRK 161146Z 1612/1712 19014G26KT 2SM -SNRA BKN010 OVC020
      WS020/20040KT
     FM161500 20012G22KT P6SM -SHRA SCT015 BKN025 OVC040
      WS020/22040KT
     FM161900 19018G35KT P6SM VCSH SCT020 BKN040 OVC080
      WS015/23050KT
     FM162300 20020G30KT 3SM RASN BKN009 OVC015 WS020/23045KT=

USA.gov is the U.S. government's official web portal to all federal, state and local government web resources and services.